»·PEaware :: KLM5111 EGLL-KSFO

KLM5111 :: EGLL-KSFO

FLIGHT INFORMATION

Flight Status: Arrived
Operator:
KLM
More flights by this operator :: More flights under this callsign
Pilot: Christian L. (6360)
Aircraft: Unknown
(B748)
More flights by this aircraft type
Origin: EGLL Heathrow
United Kingdom
Destination: KSFO San Francisco Intl
United States
More flights between these airports :: More routes between these airports
Route: +INYOE ALWYS2
File this flight plan on PilotEdge
Remarks:
Altitude:
(Current/Filed)
40,000ft
Speed:
(Current/Filed)
450kts
Departed: 12-Jan-19 12:35 PM
Arrived: 12-Jan-19 01:30 PM
Distance/Time
Traveled:
4649nm/0:55
Distance/Time
To Go:
Arrived

Flight Plot

Page will automatically refresh every two minutes.

Flight plan parsing failed; only flown route is shown


Map Options




Map Legend


Flown Route
Filed Route
Departure Airport
Arrival Airport
Navaid (VOR, NDB)
Fix

Horizontal Profiles

Position Reports

Time Latitude Longitude Heading Altitude Ground
Speed
12-Jan-19 12:34 39.364624 -116.891997 228 39999ft 490kts
12-Jan-19 12:35 39.273781 -117.023821 228 39999ft 490kts
12-Jan-19 12:36 39.183026 -117.154898 228 39999ft 490kts
12-Jan-19 12:37 39.092043 -117.285750 228 39999ft 490kts
12-Jan-19 12:38 39.001285 -117.415756 227 40175ft 490kts
12-Jan-19 12:39 38.910165 -117.540406 224 40170ft 491kts
12-Jan-19 12:40 38.810530 -117.659289 223 40162ft 489kts
12-Jan-19 12:41 38.711348 -117.779759 223 40155ft 491kts
12-Jan-19 12:42 38.613564 -117.900230 223 40166ft 489kts
12-Jan-19 12:43 38.515663 -118.019640 223 40161ft 489kts
12-Jan-19 12:44 38.416490 -118.140318 224 40143ft 488kts
12-Jan-19 12:45 38.317886 -118.259303 224 40141ft 491kts
12-Jan-19 12:46 38.218886 -118.378760 223 40127ft 491kts
12-Jan-19 12:47 38.119741 -118.497857 224 40118ft 491kts
12-Jan-19 12:48 38.020807 -118.616120 223 40155ft 489kts
12-Jan-19 12:48 37.938073 -118.714588 224 40147ft 488kts
12-Jan-19 12:49 37.887262 -118.844881 257 40146ft 487kts
12-Jan-19 12:50 37.868351 -118.996625 262 40145ft 486kts
12-Jan-19 12:51 37.848920 -119.166412 262 40137ft 486kts
12-Jan-19 12:53 37.826443 -119.363942 262 38090ft 490kts
12-Jan-19 12:54 37.806140 -119.536073 262 35392ft 492kts
12-Jan-19 12:54 37.788347 -119.684499 261 33138ft 526kts
12-Jan-19 12:55 37.765945 -119.868788 258 30279ft 541kts
12-Jan-19 12:56 37.743480 -120.053432 258 28853ft 505kts
12-Jan-19 12:57 37.722625 -120.220121 257 28014ft 459kts
12-Jan-19 12:58 37.703192 -120.372760 257 27238ft 419kts
12-Jan-19 12:59 37.686440 -120.515867 258 25531ft 412kts
12-Jan-19 13:00 37.669912 -120.655481 258 24567ft 382kts
12-Jan-19 13:01 37.654599 -120.784793 258 23368ft 365kts
12-Jan-19 13:02 37.639460 -120.909788 258 21968ft 355kts
12-Jan-19 13:03 37.646135 -121.032365 282 20595ft 350kts
12-Jan-19 13:04 37.668948 -121.150119 281 19253ft 341kts
12-Jan-19 13:05 37.690352 -121.265380 281 17895ft 332kts
12-Jan-19 13:06 37.710827 -121.377312 280 16542ft 321kts
12-Jan-19 13:07 37.730514 -121.485782 280 14621ft 312kts
12-Jan-19 13:08 37.749760 -121.590886 280 12802ft 302kts
12-Jan-19 13:09 37.768303 -121.693423 279 10880ft 298kts
12-Jan-19 13:10 37.786876 -121.795590 279 8885ft 300kts
12-Jan-19 13:11 37.804976 -121.897297 279 7747ft 292kts
12-Jan-19 13:12 37.822105 -121.993108 279 7115ft 271kts
12-Jan-19 13:13 37.838651 -122.085763 279 6507ft 268kts
12-Jan-19 13:14 37.854801 -122.177248 279 5905ft 264kts
12-Jan-19 13:15 37.848668 -122.260467 211 5526ft 225kts
12-Jan-19 13:16 37.799443 -122.237947 134 5190ft 204kts
12-Jan-19 13:17 37.760223 -122.185856 133 5007ft 204kts
12-Jan-19 13:18 37.720731 -122.133927 133 5005ft 205kts
12-Jan-19 13:19 37.681172 -122.081885 133 5000ft 206kts
12-Jan-19 13:20 37.641465 -122.029609 134 4999ft 206kts
12-Jan-19 13:21 37.591814 -122.043566 212 4975ft 203kts
12-Jan-19 13:22 37.551102 -122.085318 213 4072ft 179kts
12-Jan-19 13:23 37.512588 -122.124773 231 2983ft 180kts
12-Jan-19 13:24 37.532579 -122.173072 320 3028ft 167kts
12-Jan-19 13:25 37.556586 -122.220761 297 2014ft 163kts
12-Jan-19 13:26 37.577594 -122.271565 299 1528ft 162kts
12-Jan-19 13:27 37.598401 -122.321107 298 676ft 157kts
12-Jan-19 13:28 37.617550 -122.366627 297 26ft 93kts
12-Jan-19 13:29 37.622053 -122.378674 275 26ft 28kts
12-Jan-19 13:30 37.622256 -122.380972 272 26ft 17kts
12-Jan-19 13:31 37.622128 -122.385264 264 26ft 0kts
12-Jan-19 13:32 37.621775 -122.386274 237 26ft 6kts
12-Jan-19 13:33 37.621083 -122.388430 207 26ft 0kts
12-Jan-19 13:34 37.621083 -122.388430 207 26ft 0kts
12-Jan-19 13:35 37.621083 -122.388430 207 26ft 0kts
12-Jan-19 13:36 37.621083 -122.388430 207 26ft 0kts
12-Jan-19 13:37 37.621083 -122.388430 207 26ft 0kts
12-Jan-19 13:38 37.621083 -122.388430 207 26ft 0kts
12-Jan-19 13:39 37.621083 -122.388430 207 26ft 0kts
12-Jan-19 13:40 37.621083 -122.388430 207 26ft 0kts
12-Jan-19 13:41 37.621083 -122.388430 207 26ft 0kts

Navigation Log

Ident Type
Flight plan parsing failed, navigation log unavailable